Share

Kansai, Japan

Kansai International (RJBB) Elev 26 ft | 34.43 °N, 135.23 °E | Change Station

Current weather conditions updated 21 minutes ago

Light Rain
Light Rain
63 °F
Feels Like 63 °F
N
4
Wind Variable Wind from NE
Sunrise 5:25 AM
Sunset 6:31 PM
Moon Waning Gibbous

Tomorrow is forecast to be Much Cooler than today. Cloudy, periods of rain.

Pressure 29.92 in
Visibility 5.6 miles
Clouds Few 4000 ft
Scattered Clouds 8000 ft
Mostly Cloudy 10000 ft
Dew Point 54 °F
Humidity 72%
Rainfall 0.00 in
Snow Depth Not available.
UV 0 out of 16
Pollen Not available.
Air Quality Not available.
Flu Activity Not available.
METAR RJBB 171430Z 05003KT 9000 -RA FEW040 SCT080 BKN100 17/12 Q1013 NOSIG

More Conditions Fewer Conditions

Pressure 29.92 in
Visibility 5.6 miles
Clouds Few 4000 ft
Scattered Clouds 8000 ft
Mostly Cloudy 10000 ft
Dew Point 54 °F
Humidity 72%
Rainfall 0.00 in
Snow Depth Not available.
UV 0 out of 16
Pollen Not available.
Air Quality Not available.
Flu Activity Not available.
METAR RJBB 171430Z 05003KT 9000 -RA FEW040 SCT080 BKN100 17/12 Q1013 NOSIG

More Conditions Fewer Conditions

10-Day Forecast

Almanac

Astronomy

Apr. 17, 2014 Rise Set
Actual Time 5:25 AM JST 6:31 PM JST
Civil Twilight 5:00 AM JST 6:57 PM JST
Nautical Twilight 4:29 AM JST 7:28 PM JST
Astronomical Twilight 3:57 AM JST 8:00 PM JST
Moon 8:34 PM JST 6:32 AM JST
Length of Visible Light 13h 57m
Length of Day
13h 06m
Tomorrow will be 2m 1s longer.
Waning Gibbous, 94% of the Moon is Illuminated
Today
Waning Gibbous
Apr 22
Last Quarter
Apr 29
New
May 6
First Quarter
May 14
Full

Today's Extremes

Country Highs Country Lows

Community

  • New Day
    New Day
  • Lake Michigan Sunrise
    Lake Michigan Sunrise
  • sunset from izmir, narlıdere
    sunset from izmir, narlıdere
  • oregon cherry
    oregon cherry
  • Sunset over the Bay
    Sunset over the Bay

WunderPhotos

Upload Photos

1,702,007 photos uploaded!

Nearby

Snow Depth

Not available.

Coastal Water Temperatures

Place Temperature
No Stations Reporting

Earthquake Activity

City Distance Mag. Time & Date
No recent earthquake activity has been reported nearby.
Minimum magnitude displayed is 2.5.

Nearby Weather Stations

Station Location Temp. Dew Point Humidity Wind Precip. Elev Updated Type
SUNAYAMA-Minami, WAKAYAMA 67.6 °F 45 °F 44% NW  at  0.0 mph 0.00 in / hr 30 ft 11:51 PM JST Rapid Fire
Awaji-IS Sumoto, %u6D32%u672C%u5E02 62.8 °F 51 °F 65% SSW  at  3.0 mph 0.00 in / hr 98 ft 11:44 PM JST Normal
North Kobe, Kobe 60.6 °F 53 °F 77% WNW  at  0.0 mph 0.01 in / hr 1033 ft 11:50 PM JST Normal

Show More Stations Show Fewer Stations

What do you think?

We're not finished. Please let us know what you like, what you don't like, and what you are still missing.